createdAt,value
2024-02-01T00:00:40.968Z,100.00
2024-02-01T00:03:27.700Z,100.00
2024-02-01T00:05:55.218Z,100.00
2024-02-01T00:08:22.038Z,100.00
2024-02-01T00:10:49.053Z,100.00
2024-02-01T00:13:15.693Z,100.00
2024-02-01T00:15:42.711Z,100.00
2024-02-01T00:18:09.459Z,100.00
2024-02-01T00:20:36.994Z,100.00
2024-02-01T00:23:03.853Z,100.00
2024-02-01T00:25:30.760Z,100.00
2024-02-01T00:27:57.497Z,100.00
2024-02-01T00:30:25.523Z,100.00
2024-02-01T00:32:52.481Z,100.00
2024-02-01T00:35:19.440Z,100.00
2024-02-01T00:37:46.105Z,100.00
2024-02-01T00:40:13.401Z,100.00
2024-02-01T00:42:40.707Z,100.00
2024-02-01T00:45:08.341Z,100.00
2024-02-01T00:47:35.393Z,100.00
2024-02-01T00:50:02.506Z,100.00
2024-02-01T00:52:29.263Z,100.00
2024-02-01T00:54:56.185Z,100.00
2024-02-01T00:57:22.846Z,100.00
2024-02-01T00:59:50.169Z,100.00
2024-02-01T01:02:17.074Z,100.00
2024-02-01T01:04:44.065Z,100.00
2024-02-01T01:07:10.772Z,100.00
2024-02-01T01:09:37.821Z,100.00
2024-02-01T01:12:05.218Z,100.00
2024-02-01T01:14:32.179Z,100.00
2024-02-01T01:16:58.849Z,100.00
2024-02-01T01:19:25.877Z,100.00
2024-02-01T01:21:52.672Z,100.00
2024-02-01T01:24:20.062Z,100.00
2024-02-01T01:26:46.745Z,100.00
2024-02-01T01:29:13.668Z,100.00
2024-02-01T01:31:40.379Z,100.00
2024-02-01T01:34:07.478Z,100.00
2024-02-01T01:36:34.250Z,100.00
2024-02-01T01:39:01.196Z,100.00
2024-02-01T01:41:27.999Z,100.00
2024-02-01T01:43:54.948Z,100.00
2024-02-01T01:46:21.630Z,100.00
2024-02-01T01:48:48.804Z,100.00
2024-02-01T01:51:16.647Z,100.00
2024-02-01T01:53:44.877Z,100.00
2024-02-01T01:56:12.918Z,100.00
2024-02-01T01:58:40.750Z,100.00
2024-02-01T02:01:08.143Z,100.00
2024-02-01T02:03:38.318Z,100.00
2024-02-01T02:06:05.454Z,100.00
2024-02-01T02:08:32.550Z,100.00
2024-02-01T02:10:59.452Z,100.00
2024-02-01T02:13:26.396Z,100.00
2024-02-01T02:15:53.474Z,100.00
2024-02-01T02:18:20.533Z,100.00
2024-02-01T02:20:48.665Z,100.00
2024-02-01T02:23:15.694Z,100.00
2024-02-01T02:25:42.390Z,100.00
2024-02-01T02:28:09.352Z,100.00
2024-02-01T02:30:38.445Z,100.00
2024-02-01T02:33:05.574Z,100.00
2024-02-01T02:35:32.391Z,100.00
2024-02-01T02:37:59.388Z,100.00
2024-02-01T02:40:26.013Z,100.00
2024-02-01T02:42:52.983Z,100.00
2024-02-01T02:45:20.650Z,100.00
2024-02-01T02:47:48.568Z,100.00
2024-02-01T02:50:15.794Z,100.00
2024-02-01T02:52:44.724Z,100.00
2024-02-01T02:55:11.802Z,100.00
2024-02-01T02:57:38.935Z,100.00
2024-02-01T03:00:07.589Z,100.00
2024-02-01T03:02:35.326Z,100.00
2024-02-01T03:05:03.003Z,100.00
2024-02-01T03:07:30.403Z,100.00
2024-02-01T03:09:57.306Z,100.00
2024-02-01T03:12:24.244Z,100.00
2024-02-01T03:14:51.879Z,100.00
2024-02-01T03:17:20.038Z,100.00
2024-02-01T03:19:52.134Z,100.00
2024-02-01T03:22:26.301Z,100.00
2024-02-01T03:25:00.155Z,100.00
2024-02-01T03:27:27.679Z,100.00
2024-02-01T03:29:54.341Z,100.00
2024-02-01T03:32:21.277Z,100.00
2024-02-01T03:34:48.378Z,100.00
2024-02-01T03:37:16.340Z,100.00
2024-02-01T03:39:43.409Z,100.00
2024-02-01T03:42:10.945Z,100.00
2024-02-01T03:44:40.572Z,100.00
2024-02-01T03:47:11.033Z,100.00
2024-02-01T03:49:40.771Z,100.00
2024-02-01T03:52:08.705Z,100.00
2024-02-01T03:54:36.953Z,100.00
2024-02-01T03:57:04.254Z,100.00
2024-02-01T03:59:32.860Z,100.00
2024-02-01T04:02:06.395Z,100.00
2024-02-01T04:04:33.649Z,100.00
2024-02-01T04:07:01.246Z,100.00
2024-02-01T04:09:28.394Z,100.00
2024-02-01T04:11:55.914Z,100.00
2024-02-01T04:14:22.772Z,100.00
2024-02-01T04:16:49.691Z,100.00
2024-02-01T04:19:16.709Z,100.00
2024-02-01T04:21:49.295Z,100.00
2024-02-01T04:24:18.210Z,100.00
2024-02-01T04:26:45.804Z,100.00
2024-02-01T04:29:12.618Z,100.00
2024-02-01T04:31:39.502Z,100.00
2024-02-01T04:34:06.607Z,100.00
2024-02-01T04:36:33.859Z,100.00
2024-02-01T04:39:04.458Z,100.00
2024-02-01T04:41:31.878Z,100.00
2024-02-01T04:43:59.539Z,100.00
2024-02-01T04:46:26.535Z,100.00
2024-02-01T04:48:53.397Z,100.00
2024-02-01T04:51:20.425Z,100.00
2024-02-01T04:53:47.082Z,100.00
2024-02-01T04:56:14.031Z,100.00
2024-02-01T04:58:41.325Z,100.00
2024-02-01T05:01:11.651Z,100.00
2024-02-01T05:03:39.242Z,100.00
2024-02-01T05:06:09.251Z,100.00
2024-02-01T05:08:36.572Z,100.00
2024-02-01T05:11:03.722Z,100.00
2024-02-01T05:13:31.620Z,100.00
2024-02-01T05:16:03.297Z,100.00
2024-02-01T05:18:30.713Z,100.00
2024-02-01T05:20:57.926Z,100.00
2024-02-01T05:23:24.657Z,100.00
2024-02-01T05:25:51.826Z,100.00
2024-02-01T05:28:19.365Z,100.00
2024-02-01T05:30:46.408Z,100.00
2024-02-01T05:33:13.371Z,100.00
2024-02-01T05:35:40.684Z,100.00
2024-02-01T05:38:08.084Z,100.00
2024-02-01T05:40:37.480Z,100.00
2024-02-01T05:43:05.025Z,100.00
2024-02-01T05:45:32.973Z,100.00
2024-02-01T05:48:01.304Z,100.00
2024-02-01T05:50:29.122Z,100.00
2024-02-01T05:52:56.665Z,100.00
2024-02-01T05:55:23.688Z,100.00
2024-02-01T05:57:50.350Z,100.00
2024-02-01T06:00:23.393Z,100.00
2024-02-01T06:02:51.098Z,100.00
2024-02-01T06:05:21.542Z,100.00
2024-02-01T06:07:48.415Z,100.00
2024-02-01T06:10:15.346Z,100.00
2024-02-01T06:12:41.951Z,100.00
2024-02-01T06:15:12.381Z,100.00
2024-02-01T06:17:39.605Z,100.00
2024-02-01T06:20:07.618Z,100.00
2024-02-01T06:22:34.465Z,100.00
2024-02-01T06:25:01.370Z,100.00
2024-02-01T06:27:30.335Z,100.00
2024-02-01T06:30:00.278Z,100.00
2024-02-01T06:32:27.996Z,100.00
2024-02-01T06:35:07.473Z,100.00
2024-02-01T06:37:36.868Z,100.00
2024-02-01T06:40:22.865Z,100.00
2024-02-01T06:43:08.068Z,100.00
2024-02-01T06:45:45.486Z,100.00
2024-02-01T06:48:13.098Z,100.00
2024-02-01T06:50:58.513Z,100.00
2024-02-01T06:53:34.717Z,100.00
2024-02-01T06:56:07.937Z,100.00
2024-02-01T06:58:48.297Z,100.00
2024-02-01T07:01:35.760Z,100.00
2024-02-01T07:04:18.618Z,100.00
2024-02-01T07:07:08.098Z,100.00
2024-02-01T07:09:47.842Z,100.00
2024-02-01T07:12:30.564Z,100.00
2024-02-01T07:15:20.256Z,100.00
2024-02-01T07:17:47.972Z,100.00
2024-02-01T07:20:25.168Z,100.00
2024-02-01T07:23:02.491Z,100.00
2024-02-01T07:25:37.896Z,100.00
2024-02-01T07:28:23.929Z,100.00
2024-02-01T07:31:09.238Z,100.00
2024-02-01T07:33:54.941Z,100.00
2024-02-01T07:36:40.161Z,100.00
2024-02-01T07:39:25.646Z,100.00
2024-02-01T07:42:11.147Z,100.00
2024-02-01T07:44:56.836Z,100.00
2024-02-01T07:47:42.394Z,100.00
2024-02-01T07:50:28.254Z,100.00
2024-02-01T07:53:13.358Z,100.00
2024-02-01T07:55:59.500Z,100.00
2024-02-01T07:58:26.338Z,100.00
2024-02-01T08:00:57.601Z,100.00
2024-02-01T08:03:28.002Z,100.00
2024-02-01T08:06:14.721Z,100.00
2024-02-01T08:08:42.597Z,100.00
2024-02-01T08:11:10.451Z,100.00
2024-02-01T08:13:37.919Z,100.00
2024-02-01T08:16:05.312Z,100.00
2024-02-01T08:18:36.401Z,100.00
2024-02-01T08:21:06.028Z,100.00
2024-02-01T08:23:33.350Z,100.00
2024-02-01T08:26:04.166Z,100.00
2024-02-01T08:28:33.873Z,100.00
2024-02-01T08:31:09.121Z,100.00
2024-02-01T08:33:37.370Z,100.00
2024-02-01T08:36:06.781Z,100.00
2024-02-01T08:38:33.810Z,100.00
2024-02-01T08:41:04.497Z,100.00
2024-02-01T08:43:31.785Z,100.00
2024-02-01T08:45:58.749Z,100.00
2024-02-01T08:48:25.558Z,100.00
2024-02-01T08:50:54.932Z,100.00
2024-02-01T08:53:23.408Z,100.00
2024-02-01T08:55:53.786Z,100.00
2024-02-01T08:58:22.030Z,100.00
2024-02-01T09:00:50.401Z,100.00
2024-02-01T09:03:18.300Z,100.00
2024-02-01T09:05:48.946Z,100.00
2024-02-01T09:08:25.881Z,100.00
2024-02-01T09:10:59.162Z,100.00
2024-02-01T09:13:27.157Z,100.00
2024-02-01T09:15:54.998Z,100.00
2024-02-01T09:18:22.806Z,100.00
2024-02-01T09:20:49.846Z,100.00
2024-02-01T09:23:16.842Z,100.00
2024-02-01T09:25:44.338Z,100.00
2024-02-01T09:28:15.914Z,100.00
2024-02-01T09:30:48.108Z,100.00
2024-02-01T09:33:19.800Z,100.00
2024-02-01T09:35:47.468Z,100.00
2024-02-01T09:38:15.071Z,100.00
2024-02-01T09:40:45.352Z,100.00
2024-02-01T09:43:22.394Z,100.00
2024-02-01T09:45:53.400Z,100.00
2024-02-01T09:48:21.469Z,100.00
2024-02-01T09:50:54.085Z,100.00
2024-02-01T09:53:22.773Z,100.00
2024-02-01T09:55:51.371Z,100.00
2024-02-01T09:58:19.245Z,100.00
2024-02-01T10:00:47.304Z,100.00
2024-02-01T10:03:15.060Z,100.00
2024-02-01T10:05:44.110Z,100.00
2024-02-01T10:08:15.632Z,100.00
2024-02-01T10:10:44.080Z,100.00
2024-02-01T10:13:20.065Z,100.00
2024-02-01T10:15:48.634Z,100.00
2024-02-01T10:18:22.715Z,100.00
2024-02-01T10:20:51.929Z,100.00
2024-02-01T10:23:20.784Z,100.00
2024-02-01T10:25:50.032Z,100.00
2024-02-01T10:28:19.264Z,100.00
2024-02-01T10:30:47.757Z,100.00
2024-02-01T10:33:16.532Z,100.00
2024-02-01T10:35:54.090Z,100.00
2024-02-01T10:38:22.759Z,100.00
2024-02-01T10:41:03.337Z,100.00
2024-02-01T10:43:31.764Z,100.00
2024-02-01T10:46:07.760Z,100.00
2024-02-01T10:48:44.414Z,100.00
2024-02-01T10:51:12.823Z,100.00
2024-02-01T10:53:45.044Z,97.97
2024-02-01T10:56:17.918Z,100.00
2024-02-01T10:58:47.025Z,100.00
2024-02-01T11:01:16.805Z,100.00
2024-02-01T11:03:59.735Z,98.16
2024-02-01T11:06:28.126Z,96.23
2024-02-01T11:08:56.424Z,98.01
2024-02-01T11:11:34.739Z,98.50
2024-02-01T11:14:10.548Z,99.49
2024-02-01T11:17:04.784Z,100.00
2024-02-01T11:19:37.026Z,99.99
2024-02-01T11:22:08.084Z,100.00
2024-02-01T11:24:37.098Z,99.98
2024-02-01T11:27:14.852Z,99.39
2024-02-01T11:29:58.078Z,97.80
2024-02-01T11:32:32.144Z,97.25
2024-02-01T11:35:00.687Z,97.76
2024-02-01T11:37:29.510Z,98.39
2024-02-01T11:39:57.109Z,98.68
2024-02-01T11:42:31.789Z,96.85
2024-02-01T11:45:02.448Z,97.04
2024-02-01T11:47:31.559Z,94.22
2024-02-01T11:49:58.536Z,95.10
2024-02-01T11:52:45.885Z,95.30
2024-02-01T11:55:13.088Z,93.64
2024-02-01T11:57:48.782Z,93.29
2024-02-01T12:00:28.791Z,92.91
2024-02-01T12:03:09.885Z,93.68
2024-02-01T12:05:37.946Z,94.22
2024-02-01T12:08:07.426Z,92.88
2024-02-01T12:10:35.431Z,94.05
2024-02-01T12:13:03.986Z,92.20
2024-02-01T12:15:30.898Z,92.25
2024-02-01T12:18:00.101Z,93.23
2024-02-01T12:20:29.786Z,93.25
2024-02-01T12:23:00.728Z,95.22
2024-02-01T12:25:32.008Z,96.26
2024-02-01T12:27:59.504Z,95.22
2024-02-01T12:30:28.459Z,93.08
2024-02-01T12:32:55.941Z,92.51
2024-02-01T12:35:22.786Z,92.63
2024-02-01T12:37:49.856Z,92.50
2024-02-01T12:40:20.182Z,92.48
2024-02-01T12:42:49.983Z,92.69
2024-02-01T12:45:21.652Z,94.08
2024-02-01T12:47:50.088Z,92.10
2024-02-01T12:50:17.159Z,91.10
2024-02-01T12:52:44.883Z,90.77
2024-02-01T12:55:11.983Z,90.77
2024-02-01T12:57:39.797Z,90.97
2024-02-01T13:00:07.669Z,91.68
2024-02-01T13:02:35.375Z,90.93
2024-02-01T13:05:08.772Z,90.51
2024-02-01T13:07:36.056Z,89.97
2024-02-01T13:10:08.124Z,89.16
2024-02-01T13:12:36.514Z,88.39
2024-02-01T13:15:06.551Z,87.07
2024-02-01T13:17:35.811Z,87.85
2024-02-01T13:20:04.756Z,86.71
2024-02-01T13:22:32.532Z,87.18
2024-02-01T13:24:59.269Z,86.48
2024-02-01T13:27:26.666Z,86.29
2024-02-01T13:29:53.586Z,86.36
2024-02-01T13:32:20.657Z,87.56
2024-02-01T13:34:47.519Z,87.68
2024-02-01T13:37:14.565Z,87.78
2024-02-01T13:39:44.995Z,86.78
2024-02-01T13:42:13.606Z,87.56
2024-02-01T13:44:40.570Z,85.70
2024-02-01T13:47:08.068Z,86.40
2024-02-01T13:49:35.067Z,86.64
2024-02-01T13:52:02.409Z,88.13
2024-02-01T13:54:29.301Z,87.69
2024-02-01T13:56:56.464Z,87.57
2024-02-01T13:59:23.230Z,87.17
2024-02-01T14:01:50.351Z,88.31
2024-02-01T14:04:17.108Z,88.01
2024-02-01T14:06:44.213Z,88.28
2024-02-01T14:09:11.343Z,89.37
2024-02-01T14:11:41.378Z,90.35
2024-02-01T14:14:08.646Z,90.96
2024-02-01T14:16:36.195Z,90.37
2024-02-01T14:19:03.451Z,90.13
2024-02-01T14:21:31.014Z,91.28
2024-02-01T14:24:01.647Z,92.05
2024-02-01T14:26:29.752Z,91.89
2024-02-01T14:28:57.426Z,92.78
2024-02-01T14:31:25.321Z,93.42
2024-02-01T14:33:52.370Z,91.05
2024-02-01T14:36:19.569Z,90.28
2024-02-01T14:38:49.141Z,90.07
2024-02-01T14:41:17.111Z,90.33
2024-02-01T14:43:44.026Z,90.36
2024-02-01T14:46:13.828Z,90.46
2024-02-01T14:48:40.721Z,90.92
2024-02-01T14:51:07.906Z,90.66
2024-02-01T14:53:34.712Z,91.93
2024-02-01T14:56:01.662Z,91.92
2024-02-01T14:58:28.390Z,92.25
2024-02-01T15:00:57.343Z,92.32
2024-02-01T15:03:24.387Z,93.64
2024-02-01T15:05:51.848Z,93.52
2024-02-01T15:08:19.025Z,94.07
2024-02-01T15:10:46.081Z,94.10
2024-02-01T15:13:12.750Z,93.68
2024-02-01T15:15:40.268Z,94.53
2024-02-01T15:18:08.525Z,93.47
2024-02-01T15:20:36.082Z,93.18
2024-02-01T15:23:03.809Z,93.40
2024-02-01T15:25:31.331Z,93.72
2024-02-01T15:27:58.107Z,94.71
2024-02-01T15:30:25.197Z,94.80
2024-02-01T15:32:52.077Z,94.69
2024-02-01T15:35:19.166Z,94.81
2024-02-01T15:37:45.987Z,95.64
2024-02-01T15:40:13.583Z,94.91
2024-02-01T15:42:44.661Z,99.25
2024-02-01T15:45:12.096Z,100.00
2024-02-01T15:47:47.164Z,100.00
2024-02-01T15:50:18.979Z,100.00
2024-02-01T15:52:46.228Z,99.99
2024-02-01T15:55:13.467Z,99.03
2024-02-01T15:57:40.327Z,98.31
2024-02-01T16:00:10.176Z,100.00
2024-02-01T16:02:37.143Z,100.00
2024-02-01T16:05:04.417Z,100.00
2024-02-01T16:07:31.797Z,100.00
2024-02-01T16:09:59.452Z,100.00
2024-02-01T16:12:27.510Z,100.00
2024-02-01T16:14:55.352Z,100.00
2024-02-01T16:17:22.248Z,100.00
2024-02-01T16:19:49.906Z,100.00
2024-02-01T16:22:22.525Z,99.83
2024-02-01T16:24:59.242Z,100.00
2024-02-01T16:27:44.800Z,99.62
2024-02-01T16:30:15.053Z,99.75
2024-02-01T16:32:41.947Z,99.92
2024-02-01T16:35:37.862Z,100.00
2024-02-01T16:38:05.135Z,100.00
2024-02-01T16:40:37.019Z,100.00
2024-02-01T16:43:04.674Z,100.00
2024-02-01T16:45:31.801Z,100.00
2024-02-01T16:47:59.437Z,100.00
2024-02-01T16:50:53.006Z,100.00
2024-02-01T16:53:39.853Z,100.00
2024-02-01T16:56:08.749Z,100.00
2024-02-01T16:58:51.013Z,100.00
2024-02-01T17:01:18.032Z,100.00
2024-02-01T17:03:44.926Z,100.00
2024-02-01T17:06:13.007Z,100.00
2024-02-01T17:08:39.733Z,100.00
2024-02-01T17:11:07.552Z,100.00
2024-02-01T17:13:35.155Z,100.00
2024-02-01T17:16:03.503Z,100.00
2024-02-01T17:18:33.252Z,100.00
2024-02-01T17:21:02.710Z,100.00
2024-02-01T17:23:29.630Z,100.00
2024-02-01T17:26:11.838Z,100.00
2024-02-01T17:28:40.839Z,100.00
2024-02-01T17:31:15.045Z,100.00
2024-02-01T17:33:57.937Z,100.00
2024-02-01T17:36:25.252Z,100.00
2024-02-01T17:38:53.196Z,100.00
2024-02-01T17:41:25.445Z,100.00
2024-02-01T17:43:52.320Z,100.00
2024-02-01T17:46:51.749Z,100.00
2024-02-01T17:49:44.537Z,100.00
2024-02-01T17:52:44.918Z,100.00
2024-02-01T17:55:27.966Z,100.00
2024-02-01T17:57:57.220Z,100.00
2024-02-01T18:00:28.220Z,100.00
2024-02-01T18:02:57.315Z,100.00
2024-02-01T18:05:28.225Z,100.00
2024-02-01T18:07:55.517Z,100.00
2024-02-01T18:10:29.375Z,100.00
2024-02-01T18:12:57.095Z,100.00
2024-02-01T18:15:53.621Z,100.00
2024-02-01T18:18:27.058Z,100.00
2024-02-01T18:20:56.496Z,100.00
2024-02-01T18:23:26.165Z,100.00
2024-02-01T18:25:59.980Z,100.00
2024-02-01T18:28:27.024Z,100.00
2024-02-01T18:30:53.888Z,100.00
2024-02-01T18:33:21.172Z,100.00
2024-02-01T18:35:52.217Z,100.00
2024-02-01T18:38:19.459Z,100.00
2024-02-01T18:40:51.895Z,100.00
2024-02-01T18:43:23.413Z,100.00
2024-02-01T18:45:50.289Z,100.00
2024-02-01T18:48:26.287Z,100.00
2024-02-01T18:50:55.485Z,100.00
2024-02-01T18:53:45.371Z,100.00
2024-02-01T18:56:34.693Z,100.00
2024-02-01T18:59:02.962Z,100.00
2024-02-01T19:01:34.425Z,100.00
2024-02-01T19:04:06.456Z,100.00
2024-02-01T19:06:39.367Z,100.00
2024-02-01T19:09:27.085Z,100.00
2024-02-01T19:12:01.805Z,100.00
2024-02-01T19:14:34.178Z,100.00
2024-02-01T19:17:27.394Z,100.00
2024-02-01T19:19:54.895Z,100.00
2024-02-01T19:22:36.576Z,100.00
2024-02-01T19:25:04.561Z,100.00
2024-02-01T19:27:40.067Z,100.00
2024-02-01T19:30:39.468Z,100.00
2024-02-01T19:33:06.935Z,100.00
2024-02-01T19:35:38.742Z,100.00
2024-02-01T19:38:13.940Z,100.00
2024-02-01T19:40:44.609Z,100.00
2024-02-01T19:43:11.349Z,100.00
2024-02-01T19:45:38.327Z,100.00
2024-02-01T19:48:06.547Z,100.00
2024-02-01T19:50:33.631Z,100.00
2024-02-01T19:53:00.317Z,100.00
2024-02-01T19:55:28.958Z,100.00
2024-02-01T19:57:56.179Z,100.00
2024-02-01T20:00:24.584Z,100.00
2024-02-01T20:02:51.720Z,100.00
2024-02-01T20:05:18.895Z,100.00
2024-02-01T20:07:45.569Z,100.00
2024-02-01T20:10:13.728Z,100.00
2024-02-01T20:12:41.218Z,100.00
2024-02-01T20:15:08.805Z,100.00
2024-02-01T20:17:35.717Z,100.00
2024-02-01T20:20:05.473Z,100.00
2024-02-01T20:22:34.109Z,100.00
2024-02-01T20:25:01.272Z,100.00
2024-02-01T20:27:33.104Z,100.00
2024-02-01T20:30:10.421Z,100.00
2024-02-01T20:32:37.616Z,100.00
2024-02-01T20:35:05.491Z,100.00
2024-02-01T20:37:33.737Z,100.00
2024-02-01T20:40:00.951Z,100.00
2024-02-01T20:42:28.989Z,100.00
2024-02-01T20:44:57.814Z,100.00
2024-02-01T20:47:31.016Z,100.00
2024-02-01T20:49:59.186Z,100.00
2024-02-01T20:52:28.608Z,100.00
2024-02-01T20:55:04.504Z,100.00
2024-02-01T20:57:33.166Z,100.00
2024-02-01T21:00:00.890Z,100.00
2024-02-01T21:02:52.014Z,100.00
2024-02-01T21:05:19.172Z,100.00
2024-02-01T21:07:46.339Z,100.00
2024-02-01T21:10:16.100Z,100.00
2024-02-01T21:12:47.576Z,100.00
2024-02-01T21:15:21.014Z,100.00
2024-02-01T21:17:49.922Z,100.00
2024-02-01T21:20:37.412Z,100.00
2024-02-01T21:23:04.950Z,100.00
2024-02-01T21:25:54.661Z,100.00
2024-02-01T21:28:25.261Z,100.00
2024-02-01T21:30:53.650Z,100.00
2024-02-01T21:33:20.762Z,100.00
2024-02-01T21:35:57.898Z,100.00
2024-02-01T21:38:25.459Z,100.00
2024-02-01T21:40:53.285Z,100.00
2024-02-01T21:43:20.891Z,100.00
2024-02-01T21:45:48.656Z,100.00
2024-02-01T21:48:15.702Z,100.00
2024-02-01T21:50:43.109Z,100.00
2024-02-01T21:53:10.767Z,100.00
2024-02-01T21:55:39.438Z,100.00
2024-02-01T21:58:06.696Z,100.00
2024-02-01T22:00:33.952Z,100.00
2024-02-01T22:03:02.485Z,100.00
2024-02-01T22:05:30.650Z,100.00
2024-02-01T22:07:57.634Z,100.00
2024-02-01T22:10:24.811Z,100.00
2024-02-01T22:12:51.553Z,100.00
2024-02-01T22:15:18.982Z,100.00
2024-02-01T22:17:45.882Z,100.00
2024-02-01T22:20:12.972Z,100.00
2024-02-01T22:22:40.954Z,100.00
2024-02-01T22:25:09.166Z,100.00
2024-02-01T22:27:36.035Z,100.00
2024-02-01T22:30:03.312Z,100.00
2024-02-01T22:32:30.620Z,100.00
2024-02-01T22:34:59.732Z,100.00
2024-02-01T22:37:27.522Z,100.00
2024-02-01T22:39:54.669Z,100.00
2024-02-01T22:42:21.603Z,100.00
2024-02-01T22:44:48.683Z,100.00
2024-02-01T22:47:16.872Z,100.00
2024-02-01T22:49:44.416Z,100.00
2024-02-01T22:52:11.476Z,100.00
2024-02-01T22:54:38.723Z,100.00
2024-02-01T22:57:06.346Z,100.00
2024-02-01T22:59:33.656Z,100.00
2024-02-01T23:02:01.674Z,100.00
2024-02-01T23:04:28.708Z,100.00
2024-02-01T23:06:55.744Z,100.00
2024-02-01T23:09:22.922Z,100.00
2024-02-01T23:11:50.254Z,100.00
2024-02-01T23:14:18.474Z,100.00
2024-02-01T23:16:45.367Z,100.00
2024-02-01T23:19:12.621Z,100.00
2024-02-01T23:21:39.961Z,100.00
2024-02-01T23:24:07.273Z,100.00
2024-02-01T23:26:33.977Z,100.00
2024-02-01T23:29:01.047Z,100.00
2024-02-01T23:31:28.245Z,100.00
2024-02-01T23:33:55.399Z,100.00
2024-02-01T23:36:22.284Z,100.00
2024-02-01T23:38:49.366Z,100.00
2024-02-01T23:41:17.625Z,100.00
2024-02-01T23:43:45.527Z,100.00
2024-02-01T23:46:12.343Z,100.00
2024-02-01T23:48:39.406Z,100.00
2024-02-01T23:51:06.243Z,100.00
2024-02-01T23:53:33.272Z,100.00
2024-02-01T23:56:00.048Z,100.00
2024-02-01T23:58:27.036Z,100.00
